sensor_id;sensor_type;location;lat;lon;timestamp;P1;durP1;ratioP1;P2;durP2;ratioP2
17345;SDS011;8790;53.590;10.002;2022-10-26T00:00:06;11.20;;;6.40;;
17345;SDS011;8790;53.590;10.002;2022-10-26T00:02:45;8.53;;;6.37;;
17345;SDS011;8790;53.590;10.002;2022-10-26T00:05:16;8.47;;;5.70;;
17345;SDS011;8790;53.590;10.002;2022-10-26T00:07:48;10.40;;;6.70;;
17345;SDS011;8790;53.590;10.002;2022-10-26T00:10:21;12.47;;;6.17;;
17345;SDS011;8790;53.590;10.002;2022-10-26T00:12:53;9.20;;;6.07;;
17345;SDS011;8790;53.590;10.002;2022-10-26T00:15:25;12.80;;;7.23;;
17345;SDS011;8790;53.590;10.002;2022-10-26T00:17:56;10.80;;;7.10;;
17345;SDS011;8790;53.590;10.002;2022-10-26T00:20:28;9.83;;;6.33;;
17345;SDS011;8790;53.590;10.002;2022-10-26T00:23:02;8.37;;;6.20;;
17345;SDS011;8790;53.590;10.002;2022-10-26T00:25:35;10.30;;;5.97;;
17345;SDS011;8790;53.590;10.002;2022-10-26T00:28:07;7.50;;;6.13;;
17345;SDS011;8790;53.590;10.002;2022-10-26T00:30:38;8.73;;;6.03;;
17345;SDS011;8790;53.590;10.002;2022-10-26T00:33:11;13.27;;;6.03;;
17345;SDS011;8790;53.590;10.002;2022-10-26T00:35:45;11.60;;;6.70;;
17345;SDS011;8790;53.590;10.002;2022-10-26T00:38:17;12.07;;;6.40;;
17345;SDS011;8790;53.590;10.002;2022-10-26T00:40:51;11.33;;;6.53;;
17345;SDS011;8790;53.590;10.002;2022-10-26T00:43:32;10.80;;;7.50;;
17345;SDS011;8790;53.590;10.002;2022-10-26T00:46:07;12.80;;;6.83;;
17345;SDS011;8790;53.590;10.002;2022-10-26T00:48:44;11.30;;;6.70;;
17345;SDS011;8790;53.590;10.002;2022-10-26T00:51:21;10.10;;;7.03;;
17345;SDS011;8790;53.590;10.002;2022-10-26T00:53:55;13.07;;;6.90;;
17345;SDS011;8790;53.590;10.002;2022-10-26T00:56:28;10.53;;;7.00;;
17345;SDS011;8790;53.590;10.002;2022-10-26T00:59:03;9.30;;;6.90;;
17345;SDS011;8790;53.590;10.002;2022-10-26T01:01:38;10.40;;;6.60;;
17345;SDS011;8790;53.590;10.002;2022-10-26T01:04:13;12.27;;;7.10;;
17345;SDS011;8790;53.590;10.002;2022-10-26T01:06:45;10.90;;;7.60;;
17345;SDS011;8790;53.590;10.002;2022-10-26T01:09:18;10.93;;;7.40;;
17345;SDS011;8790;53.590;10.002;2022-10-26T01:11:52;12.70;;;7.27;;
17345;SDS011;8790;53.590;10.002;2022-10-26T01:14:23;12.00;;;7.30;;
17345;SDS011;8790;53.590;10.002;2022-10-26T01:16:59;13.30;;;7.70;;
17345;SDS011;8790;53.590;10.002;2022-10-26T01:19:46;14.33;;;7.90;;
17345;SDS011;8790;53.590;10.002;2022-10-26T01:22:50;10.83;;;7.20;;
17345;SDS011;8790;53.590;10.002;2022-10-26T01:25:32;11.63;;;7.17;;
17345;SDS011;8790;53.590;10.002;2022-10-26T01:28:28;11.30;;;7.10;;
17345;SDS011;8790;53.590;10.002;2022-10-26T01:31:10;12.77;;;7.40;;
17345;SDS011;8790;53.590;10.002;2022-10-26T01:33:47;10.00;;;7.00;;
17345;SDS011;8790;53.590;10.002;2022-10-26T01:36:24;10.57;;;7.00;;
17345;SDS011;8790;53.590;10.002;2022-10-26T01:39:00;11.03;;;6.77;;
17345;SDS011;8790;53.590;10.002;2022-10-26T01:41:41;9.10;;;7.23;;
17345;SDS011;8790;53.590;10.002;2022-10-26T01:44:17;11.03;;;7.20;;
17345;SDS011;8790;53.590;10.002;2022-10-26T01:46:53;9.80;;;7.10;;
17345;SDS011;8790;53.590;10.002;2022-10-26T01:49:29;9.80;;;7.20;;
17345;SDS011;8790;53.590;10.002;2022-10-26T01:52:04;12.87;;;6.90;;
17345;SDS011;8790;53.590;10.002;2022-10-26T01:54:36;8.90;;;6.50;;
17345;SDS011;8790;53.590;10.002;2022-10-26T01:57:09;11.30;;;6.73;;
17345;SDS011;8790;53.590;10.002;2022-10-26T01:59:53;13.47;;;8.17;;
17345;SDS011;8790;53.590;10.002;2022-10-26T02:02:39;10.97;;;7.43;;
17345;SDS011;8790;53.590;10.002;2022-10-26T02:05:31;9.17;;;6.80;;
17345;SDS011;8790;53.590;10.002;2022-10-26T02:08:26;11.10;;;7.03;;
17345;SDS011;8790;53.590;10.002;2022-10-26T02:11:15;11.07;;;6.50;;
17345;SDS011;8790;53.590;10.002;2022-10-26T02:13:54;12.00;;;7.30;;
17345;SDS011;8790;53.590;10.002;2022-10-26T02:16:31;8.90;;;7.33;;
17345;SDS011;8790;53.590;10.002;2022-10-26T02:19:12;11.03;;;7.40;;
17345;SDS011;8790;53.590;10.002;2022-10-26T02:21:53;13.80;;;7.00;;
17345;SDS011;8790;53.590;10.002;2022-10-26T02:24:29;10.97;;;6.93;;
17345;SDS011;8790;53.590;10.002;2022-10-26T02:27:04;10.97;;;7.00;;
17345;SDS011;8790;53.590;10.002;2022-10-26T02:29:42;9.33;;;7.30;;
17345;SDS011;8790;53.590;10.002;2022-10-26T02:32:14;10.97;;;6.93;;
17345;SDS011;8790;53.590;10.002;2022-10-26T02:34:50;13.13;;;7.53;;
17345;SDS011;8790;53.590;10.002;2022-10-26T02:37:23;12.07;;;7.00;;
17345;SDS011;8790;53.590;10.002;2022-10-26T02:39:57;12.47;;;7.30;;
17345;SDS011;8790;53.590;10.002;2022-10-26T02:42:31;11.33;;;7.53;;
17345;SDS011;8790;53.590;10.002;2022-10-26T02:45:05;10.50;;;6.70;;
17345;SDS011;8790;53.590;10.002;2022-10-26T02:47:41;11.60;;;7.23;;
17345;SDS011;8790;53.590;10.002;2022-10-26T02:50:14;12.63;;;7.97;;
17345;SDS011;8790;53.590;10.002;2022-10-26T02:52:48;11.20;;;7.07;;
17345;SDS011;8790;53.590;10.002;2022-10-26T02:55:31;12.43;;;6.83;;
17345;SDS011;8790;53.590;10.002;2022-10-26T02:58:07;10.00;;;7.33;;
17345;SDS011;8790;53.590;10.002;2022-10-26T03:00:45;11.70;;;7.17;;
17345;SDS011;8790;53.590;10.002;2022-10-26T03:03:17;12.80;;;7.20;;
17345;SDS011;8790;53.590;10.002;2022-10-26T03:05:50;12.47;;;7.67;;
17345;SDS011;8790;53.590;10.002;2022-10-26T03:08:22;9.13;;;7.03;;
17345;SDS011;8790;53.590;10.002;2022-10-26T03:10:54;11.13;;;7.13;;
17345;SDS011;8790;53.590;10.002;2022-10-26T03:13:27;11.73;;;7.33;;
17345;SDS011;8790;53.590;10.002;2022-10-26T03:15:58;12.10;;;7.63;;
17345;SDS011;8790;53.590;10.002;2022-10-26T03:18:30;12.37;;;7.60;;
17345;SDS011;8790;53.590;10.002;2022-10-26T03:21:03;11.90;;;7.73;;
17345;SDS011;8790;53.590;10.002;2022-10-26T03:23:35;10.47;;;7.07;;
17345;SDS011;8790;53.590;10.002;2022-10-26T03:26:07;10.63;;;7.63;;
17345;SDS011;8790;53.590;10.002;2022-10-26T03:28:39;10.03;;;7.90;;
17345;SDS011;8790;53.590;10.002;2022-10-26T03:31:10;13.10;;;8.57;;
17345;SDS011;8790;53.590;10.002;2022-10-26T03:33:42;10.87;;;8.03;;
17345;SDS011;8790;53.590;10.002;2022-10-26T03:36:15;12.07;;;8.13;;
17345;SDS011;8790;53.590;10.002;2022-10-26T03:38:47;13.47;;;8.30;;
17345;SDS011;8790;53.590;10.002;2022-10-26T03:41:19;14.43;;;8.60;;
17345;SDS011;8790;53.590;10.002;2022-10-26T03:43:50;13.63;;;8.23;;
17345;SDS011;8790;53.590;10.002;2022-10-26T03:46:22;17.47;;;8.60;;
17345;SDS011;8790;53.590;10.002;2022-10-26T03:48:54;12.43;;;8.97;;
17345;SDS011;8790;53.590;10.002;2022-10-26T03:51:27;13.70;;;9.17;;
17345;SDS011;8790;53.590;10.002;2022-10-26T03:53:59;12.80;;;8.63;;
17345;SDS011;8790;53.590;10.002;2022-10-26T03:56:30;13.43;;;8.77;;
17345;SDS011;8790;53.590;10.002;2022-10-26T03:59:02;15.93;;;10.13;;
17345;SDS011;8790;53.590;10.002;2022-10-26T04:01:34;13.87;;;9.13;;
17345;SDS011;8790;53.590;10.002;2022-10-26T04:04:06;16.63;;;9.90;;
17345;SDS011;8790;53.590;10.002;2022-10-26T04:06:39;13.97;;;8.93;;
17345;SDS011;8790;53.590;10.002;2022-10-26T04:09:11;15.93;;;10.13;;
17345;SDS011;8790;53.590;10.002;2022-10-26T04:11:43;15.60;;;10.07;;
17345;SDS011;8790;53.590;10.002;2022-10-26T04:14:14;18.63;;;10.53;;
17345;SDS011;8790;53.590;10.002;2022-10-26T04:16:46;14.20;;;9.60;;
17345;SDS011;8790;53.590;10.002;2022-10-26T04:19:18;16.13;;;10.43;;
17345;SDS011;8790;53.590;10.002;2022-10-26T04:21:51;16.27;;;11.00;;
17345;SDS011;8790;53.590;10.002;2022-10-26T04:24:23;13.37;;;9.77;;
17345;SDS011;8790;53.590;10.002;2022-10-26T04:26:55;19.57;;;10.47;;
17345;SDS011;8790;53.590;10.002;2022-10-26T04:29:26;17.30;;;10.50;;
17345;SDS011;8790;53.590;10.002;2022-10-26T04:31:58;16.47;;;9.80;;
17345;SDS011;8790;53.590;10.002;2022-10-26T04:34:30;14.97;;;9.70;;
17345;SDS011;8790;53.590;10.002;2022-10-26T04:37:03;16.17;;;10.60;;
17345;SDS011;8790;53.590;10.002;2022-10-26T04:39:35;16.63;;;11.17;;
17345;SDS011;8790;53.590;10.002;2022-10-26T04:42:06;16.43;;;10.70;;
17345;SDS011;8790;53.590;10.002;2022-10-26T04:44:38;17.30;;;10.70;;
17345;SDS011;8790;53.590;10.002;2022-10-26T04:47:10;17.07;;;10.23;;
17345;SDS011;8790;53.590;10.002;2022-10-26T04:49:41;17.90;;;11.27;;
17345;SDS011;8790;53.590;10.002;2022-10-26T04:52:14;20.40;;;11.77;;
17345;SDS011;8790;53.590;10.002;2022-10-26T04:54:46;18.90;;;10.87;;
17345;SDS011;8790;53.590;10.002;2022-10-26T04:57:18;19.17;;;10.80;;
17345;SDS011;8790;53.590;10.002;2022-10-26T04:59:49;15.63;;;10.40;;
17345;SDS011;8790;53.590;10.002;2022-10-26T05:02:21;16.27;;;10.80;;
17345;SDS011;8790;53.590;10.002;2022-10-26T05:04:53;17.00;;;10.87;;
17345;SDS011;8790;53.590;10.002;2022-10-26T05:07:26;16.17;;;10.47;;
17345;SDS011;8790;53.590;10.002;2022-10-26T05:09:58;17.30;;;10.40;;
17345;SDS011;8790;53.590;10.002;2022-10-26T05:12:30;17.17;;;10.53;;
17345;SDS011;8790;53.590;10.002;2022-10-26T05:15:02;18.40;;;11.10;;
17345;SDS011;8790;53.590;10.002;2022-10-26T05:17:34;18.77;;;10.77;;
17345;SDS011;8790;53.590;10.002;2022-10-26T05:20:06;20.10;;;11.43;;
17345;SDS011;8790;53.590;10.002;2022-10-26T05:22:43;19.23;;;10.93;;
17345;SDS011;8790;53.590;10.002;2022-10-26T05:25:23;19.57;;;11.77;;
17345;SDS011;8790;53.590;10.002;2022-10-26T05:27:56;20.23;;;11.60;;
17345;SDS011;8790;53.590;10.002;2022-10-26T05:30:29;19.03;;;11.17;;
17345;SDS011;8790;53.590;10.002;2022-10-26T05:33:01;17.03;;;11.00;;
17345;SDS011;8790;53.590;10.002;2022-10-26T05:35:33;19.73;;;11.53;;
17345;SDS011;8790;53.590;10.002;2022-10-26T05:38:09;24.33;;;11.90;;
17345;SDS011;8790;53.590;10.002;2022-10-26T05:40:45;23.63;;;12.17;;
17345;SDS011;8790;53.590;10.002;2022-10-26T05:43:18;21.23;;;12.43;;
17345;SDS011;8790;53.590;10.002;2022-10-26T05:45:53;19.13;;;12.63;;
17345;SDS011;8790;53.590;10.002;2022-10-26T05:48:24;22.67;;;12.53;;
17345;SDS011;8790;53.590;10.002;2022-10-26T05:50:57;22.80;;;12.67;;
17345;SDS011;8790;53.590;10.002;2022-10-26T05:53:31;21.67;;;12.93;;
17345;SDS011;8790;53.590;10.002;2022-10-26T05:56:07;26.00;;;13.73;;
17345;SDS011;8790;53.590;10.002;2022-10-26T05:58:47;22.83;;;12.73;;
17345;SDS011;8790;53.590;10.002;2022-10-26T06:01:22;21.83;;;12.77;;
17345;SDS011;8790;53.590;10.002;2022-10-26T06:04:11;19.77;;;13.10;;
17345;SDS011;8790;53.590;10.002;2022-10-26T06:06:53;20.80;;;13.67;;
17345;SDS011;8790;53.590;10.002;2022-10-26T06:09:28;20.00;;;12.23;;
17345;SDS011;8790;53.590;10.002;2022-10-26T06:12:00;21.47;;;12.80;;
17345;SDS011;8790;53.590;10.002;2022-10-26T06:14:32;23.57;;;13.17;;
17345;SDS011;8790;53.590;10.002;2022-10-26T06:17:10;22.57;;;12.93;;
17345;SDS011;8790;53.590;10.002;2022-10-26T06:20:01;23.47;;;13.13;;
17345;SDS011;8790;53.590;10.002;2022-10-26T06:22:46;18.93;;;12.93;;
17345;SDS011;8790;53.590;10.002;2022-10-26T06:25:32;22.83;;;11.87;;
17345;SDS011;8790;53.590;10.002;2022-10-26T06:28:11;23.10;;;12.73;;
17345;SDS011;8790;53.590;10.002;2022-10-26T06:30:51;24.13;;;12.67;;
17345;SDS011;8790;53.590;10.002;2022-10-26T06:33:22;23.53;;;12.57;;
17345;SDS011;8790;53.590;10.002;2022-10-26T06:35:58;20.77;;;12.73;;
17345;SDS011;8790;53.590;10.002;2022-10-26T06:38:42;21.40;;;12.97;;
17345;SDS011;8790;53.590;10.002;2022-10-26T06:41:16;25.27;;;12.13;;
17345;SDS011;8790;53.590;10.002;2022-10-26T06:43:51;19.40;;;11.50;;
17345;SDS011;8790;53.590;10.002;2022-10-26T06:46:29;17.10;;;10.87;;
17345;SDS011;8790;53.590;10.002;2022-10-26T06:49:09;15.90;;;11.03;;
17345;SDS011;8790;53.590;10.002;2022-10-26T06:51:50;19.17;;;11.30;;
17345;SDS011;8790;53.590;10.002;2022-10-26T06:54:28;19.60;;;11.40;;
17345;SDS011;8790;53.590;10.002;2022-10-26T06:57:13;19.13;;;11.20;;
17345;SDS011;8790;53.590;10.002;2022-10-26T06:59:47;16.10;;;11.03;;
17345;SDS011;8790;53.590;10.002;2022-10-26T07:02:21;17.47;;;11.97;;
17345;SDS011;8790;53.590;10.002;2022-10-26T07:04:53;22.37;;;11.97;;
17345;SDS011;8790;53.590;10.002;2022-10-26T07:07:25;22.37;;;12.73;;
17345;SDS011;8790;53.590;10.002;2022-10-26T07:09:58;26.40;;;12.40;;
17345;SDS011;8790;53.590;10.002;2022-10-26T07:12:32;19.43;;;11.37;;
17345;SDS011;8790;53.590;10.002;2022-10-26T07:15:05;18.20;;;11.67;;
17345;SDS011;8790;53.590;10.002;2022-10-26T07:17:41;19.23;;;12.23;;
17345;SDS011;8790;53.590;10.002;2022-10-26T07:20:14;15.80;;;11.77;;
17345;SDS011;8790;53.590;10.002;2022-10-26T07:22:50;16.40;;;10.73;;
17345;SDS011;8790;53.590;10.002;2022-10-26T07:25:23;17.67;;;10.23;;
17345;SDS011;8790;53.590;10.002;2022-10-26T07:27:57;19.37;;;11.13;;
17345;SDS011;8790;53.590;10.002;2022-10-26T07:30:29;17.07;;;10.77;;
17345;SDS011;8790;53.590;10.002;2022-10-26T07:33:02;16.77;;;11.43;;
17345;SDS011;8790;53.590;10.002;2022-10-26T07:35:35;16.70;;;10.80;;
17345;SDS011;8790;53.590;10.002;2022-10-26T07:38:07;18.97;;;10.90;;
17345;SDS011;8790;53.590;10.002;2022-10-26T07:40:39;17.00;;;10.33;;
17345;SDS011;8790;53.590;10.002;2022-10-26T07:43:12;17.60;;;10.37;;
17345;SDS011;8790;53.590;10.002;2022-10-26T07:45:47;18.57;;;10.80;;
17345;SDS011;8790;53.590;10.002;2022-10-26T07:48:20;15.47;;;11.10;;
17345;SDS011;8790;53.590;10.002;2022-10-26T07:50:52;14.70;;;9.93;;
17345;SDS011;8790;53.590;10.002;2022-10-26T07:53:23;15.63;;;10.33;;
17345;SDS011;8790;53.590;10.002;2022-10-26T07:55:55;16.73;;;10.70;;
17345;SDS011;8790;53.590;10.002;2022-10-26T07:58:29;20.10;;;11.30;;
17345;SDS011;8790;53.590;10.002;2022-10-26T08:01:04;17.67;;;10.40;;
17345;SDS011;8790;53.590;10.002;2022-10-26T08:03:37;20.30;;;10.90;;
17345;SDS011;8790;53.590;10.002;2022-10-26T08:06:09;16.33;;;10.73;;
17345;SDS011;8790;53.590;10.002;2022-10-26T08:08:41;19.90;;;10.50;;
17345;SDS011;8790;53.590;10.002;2022-10-26T08:11:13;14.77;;;10.07;;
17345;SDS011;8790;53.590;10.002;2022-10-26T08:13:46;12.50;;;9.53;;
17345;SDS011;8790;53.590;10.002;2022-10-26T08:16:21;15.17;;;9.73;;
17345;SDS011;8790;53.590;10.002;2022-10-26T08:18:53;11.23;;;9.03;;
17345;SDS011;8790;53.590;10.002;2022-10-26T08:21:25;13.77;;;9.83;;
17345;SDS011;8790;53.590;10.002;2022-10-26T08:23:57;14.43;;;9.17;;
17345;SDS011;8790;53.590;10.002;2022-10-26T08:26:28;13.87;;;9.43;;
17345;SDS011;8790;53.590;10.002;2022-10-26T08:29:01;15.57;;;10.00;;
17345;SDS011;8790;53.590;10.002;2022-10-26T08:31:33;14.40;;;9.53;;
17345;SDS011;8790;53.590;10.002;2022-10-26T08:34:05;11.70;;;9.17;;
17345;SDS011;8790;53.590;10.002;2022-10-26T08:36:37;14.47;;;8.90;;
17345;SDS011;8790;53.590;10.002;2022-10-26T08:39:09;14.27;;;9.00;;
17345;SDS011;8790;53.590;10.002;2022-10-26T08:41:41;13.13;;;8.50;;
17345;SDS011;8790;53.590;10.002;2022-10-26T08:44:19;14.20;;;8.87;;
17345;SDS011;8790;53.590;10.002;2022-10-26T08:46:57;13.27;;;8.47;;
17345;SDS011;8790;53.590;10.002;2022-10-26T08:49:35;14.83;;;9.50;;
17345;SDS011;8790;53.590;10.002;2022-10-26T08:52:13;13.20;;;8.90;;
17345;SDS011;8790;53.590;10.002;2022-10-26T08:57:21;14.03;;;8.80;;
17345;SDS011;8790;53.590;10.002;2022-10-26T08:59:59;17.60;;;9.27;;
17345;SDS011;8790;53.590;10.002;2022-10-26T09:02:34;15.37;;;9.00;;
17345;SDS011;8790;53.590;10.002;2022-10-26T09:05:08;12.00;;;8.50;;
17345;SDS011;8790;53.590;10.002;2022-10-26T09:07:47;13.97;;;8.83;;
17345;SDS011;8790;53.590;10.002;2022-10-26T09:10:32;12.77;;;8.43;;
17345;SDS011;8790;53.590;10.002;2022-10-26T09:13:13;12.60;;;8.40;;
17345;SDS011;8790;53.590;10.002;2022-10-26T09:15:56;12.57;;;9.07;;
17345;SDS011;8790;53.590;10.002;2022-10-26T09:18:38;11.47;;;8.17;;
17345;SDS011;8790;53.590;10.002;2022-10-26T09:21:22;8.90;;;6.87;;
17345;SDS011;8790;53.590;10.002;2022-10-26T09:24:04;9.17;;;6.80;;
17345;SDS011;8790;53.590;10.002;2022-10-26T09:26:47;12.60;;;7.70;;
17345;SDS011;8790;53.590;10.002;2022-10-26T09:29:25;12.93;;;7.57;;
17345;SDS011;8790;53.590;10.002;2022-10-26T09:32:01;13.27;;;7.50;;
17345;SDS011;8790;53.590;10.002;2022-10-26T09:34:36;9.03;;;6.80;;
17345;SDS011;8790;53.590;10.002;2022-10-26T09:37:12;8.93;;;6.57;;
17345;SDS011;8790;53.590;10.002;2022-10-26T09:39:55;8.77;;;6.70;;
17345;SDS011;8790;53.590;10.002;2022-10-26T09:42:37;9.23;;;6.43;;
17345;SDS011;8790;53.590;10.002;2022-10-26T09:45:14;8.73;;;6.60;;
17345;SDS011;8790;53.590;10.002;2022-10-26T09:47:52;10.70;;;6.83;;
17345;SDS011;8790;53.590;10.002;2022-10-26T09:50:27;9.43;;;6.83;;
17345;SDS011;8790;53.590;10.002;2022-10-26T09:53:03;12.23;;;7.10;;
17345;SDS011;8790;53.590;10.002;2022-10-26T09:55:38;8.80;;;6.37;;
17345;SDS011;8790;53.590;10.002;2022-10-26T09:58:14;9.50;;;6.13;;
17345;SDS011;8790;53.590;10.002;2022-10-26T10:00:50;9.10;;;6.77;;
17345;SDS011;8790;53.590;10.002;2022-10-26T10:03:25;12.50;;;6.83;;
17345;SDS011;8790;53.590;10.002;2022-10-26T10:06:14;9.50;;;5.83;;
17345;SDS011;8790;53.590;10.002;2022-10-26T10:09:03;7.63;;;5.93;;
17345;SDS011;8790;53.590;10.002;2022-10-26T10:11:36;8.77;;;6.07;;
17345;SDS011;8790;53.590;10.002;2022-10-26T10:14:13;7.30;;;5.77;;
17345;SDS011;8790;53.590;10.002;2022-10-26T10:16:51;9.77;;;6.20;;
17345;SDS011;8790;53.590;10.002;2022-10-26T10:19:26;8.27;;;5.33;;
17345;SDS011;8790;53.590;10.002;2022-10-26T10:22:00;8.63;;;6.50;;
17345;SDS011;8790;53.590;10.002;2022-10-26T10:24:39;8.13;;;5.73;;
17345;SDS011;8790;53.590;10.002;2022-10-26T10:27:15;7.00;;;5.50;;
17345;SDS011;8790;53.590;10.002;2022-10-26T10:29:48;9.33;;;5.70;;
17345;SDS011;8790;53.590;10.002;2022-10-26T10:32:22;7.97;;;5.50;;
17345;SDS011;8790;53.590;10.002;2022-10-26T10:34:58;10.63;;;5.90;;
17345;SDS011;8790;53.590;10.002;2022-10-26T10:37:31;8.50;;;5.70;;
17345;SDS011;8790;53.590;10.002;2022-10-26T10:40:08;9.77;;;5.93;;
17345;SDS011;8790;53.590;10.002;2022-10-26T10:42:46;9.30;;;5.90;;
17345;SDS011;8790;53.590;10.002;2022-10-26T10:45:20;10.20;;;5.87;;
17345;SDS011;8790;53.590;10.002;2022-10-26T10:47:57;7.77;;;5.90;;
17345;SDS011;8790;53.590;10.002;2022-10-26T10:50:33;6.87;;;6.13;;
17345;SDS011;8790;53.590;10.002;2022-10-26T10:53:13;8.47;;;5.80;;
17345;SDS011;8790;53.590;10.002;2022-10-26T10:55:51;7.47;;;5.93;;
17345;SDS011;8790;53.590;10.002;2022-10-26T10:58:45;8.43;;;6.00;;
17345;SDS011;8790;53.590;10.002;2022-10-26T11:01:28;7.03;;;5.67;;
17345;SDS011;8790;53.590;10.002;2022-10-26T11:04:10;9.20;;;5.13;;
17345;SDS011;8790;53.590;10.002;2022-10-26T11:06:59;8.70;;;5.97;;
17345;SDS011;8790;53.590;10.002;2022-10-26T11:09:35;8.57;;;6.20;;
17345;SDS011;8790;53.590;10.002;2022-10-26T11:12:12;10.50;;;6.13;;
17345;SDS011;8790;53.590;10.002;2022-10-26T11:14:49;7.13;;;5.80;;
17345;SDS011;8790;53.590;10.002;2022-10-26T11:17:26;8.07;;;6.17;;
17345;SDS011;8790;53.590;10.002;2022-10-26T11:20:02;9.50;;;6.60;;
17345;SDS011;8790;53.590;10.002;2022-10-26T11:22:38;9.77;;;6.60;;
17345;SDS011;8790;53.590;10.002;2022-10-26T11:25:14;10.50;;;6.23;;
17345;SDS011;8790;53.590;10.002;2022-10-26T11:27:50;12.50;;;6.47;;
17345;SDS011;8790;53.590;10.002;2022-10-26T11:30:24;9.97;;;6.30;;
17345;SDS011;8790;53.590;10.002;2022-10-26T11:32:59;9.43;;;6.60;;
17345;SDS011;8790;53.590;10.002;2022-10-26T11:35:34;10.97;;;6.40;;
17345;SDS011;8790;53.590;10.002;2022-10-26T11:38:16;9.33;;;5.80;;
17345;SDS011;8790;53.590;10.002;2022-10-26T11:40:54;11.60;;;6.50;;
17345;SDS011;8790;53.590;10.002;2022-10-26T11:43:32;10.10;;;6.07;;
17345;SDS011;8790;53.590;10.002;2022-10-26T11:46:09;10.43;;;6.13;;
17345;SDS011;8790;53.590;10.002;2022-10-26T11:48:44;11.63;;;6.13;;
17345;SDS011;8790;53.590;10.002;2022-10-26T11:51:30;8.23;;;6.23;;
17345;SDS011;8790;53.590;10.002;2022-10-26T11:54:08;7.73;;;5.93;;
17345;SDS011;8790;53.590;10.002;2022-10-26T11:56:43;8.53;;;5.90;;
17345;SDS011;8790;53.590;10.002;2022-10-26T11:59:18;9.07;;;6.43;;
17345;SDS011;8790;53.590;10.002;2022-10-26T12:01:51;10.73;;;5.33;;
17345;SDS011;8790;53.590;10.002;2022-10-26T12:04:27;7.13;;;5.73;;
17345;SDS011;8790;53.590;10.002;2022-10-26T12:07:02;9.40;;;5.67;;
17345;SDS011;8790;53.590;10.002;2022-10-26T12:09:42;7.37;;;5.37;;
17345;SDS011;8790;53.590;10.002;2022-10-26T12:12:16;7.00;;;4.80;;
17345;SDS011;8790;53.590;10.002;2022-10-26T12:14:55;8.43;;;5.10;;
17345;SDS011;8790;53.590;10.002;2022-10-26T12:17:37;9.20;;;4.80;;
17345;SDS011;8790;53.590;10.002;2022-10-26T12:20:17;9.90;;;5.23;;
17345;SDS011;8790;53.590;10.002;2022-10-26T12:23:18;6.87;;;4.70;;
17345;SDS011;8790;53.590;10.002;2022-10-26T12:25:54;4.30;;;3.70;;
17345;SDS011;8790;53.590;10.002;2022-10-26T12:29:25;7.77;;;4.03;;
17345;SDS011;8790;53.590;10.002;2022-10-26T12:31:59;7.80;;;4.07;;
17345;SDS011;8790;53.590;10.002;2022-10-26T12:37:30;9.53;;;3.97;;
17345;SDS011;8790;53.590;10.002;2022-10-26T12:43:34;8.03;;;3.53;;
17345;SDS011;8790;53.590;10.002;2022-10-26T12:52:33;8.17;;;3.43;;
17345;SDS011;8790;53.590;10.002;2022-10-26T12:55:46;6.03;;;3.03;;
17345;SDS011;8790;53.590;10.002;2022-10-26T13:07:38;6.10;;;4.30;;
17345;SDS011;8790;53.590;10.002;2022-10-26T13:10:17;6.10;;;3.10;;
17345;SDS011;8790;53.590;10.002;2022-10-26T13:12:53;5.40;;;3.10;;
17345;SDS011;8790;53.590;10.002;2022-10-26T13:15:37;5.97;;;3.17;;
17345;SDS011;8790;53.590;10.002;2022-10-26T13:18:14;6.00;;;3.53;;
17345;SDS011;8790;53.590;10.002;2022-10-26T13:20:51;7.33;;;2.97;;
17345;SDS011;8790;53.590;10.002;2022-10-26T13:23:29;6.20;;;2.80;;
17345;SDS011;8790;53.590;10.002;2022-10-26T13:26:07;4.43;;;2.80;;
17345;SDS011;8790;53.590;10.002;2022-10-26T13:28:43;4.23;;;2.70;;
17345;SDS011;8790;53.590;10.002;2022-10-26T13:34:26;3.37;;;2.67;;
17345;SDS011;8790;53.590;10.002;2022-10-26T13:37:04;5.80;;;2.87;;
17345;SDS011;8790;53.590;10.002;2022-10-26T13:39:43;5.87;;;2.87;;
17345;SDS011;8790;53.590;10.002;2022-10-26T13:42:18;5.20;;;2.90;;
17345;SDS011;8790;53.590;10.002;2022-10-26T13:44:54;5.90;;;2.73;;
17345;SDS011;8790;53.590;10.002;2022-10-26T13:47:34;3.80;;;2.53;;
17345;SDS011;8790;53.590;10.002;2022-10-26T13:50:13;6.00;;;2.87;;
17345;SDS011;8790;53.590;10.002;2022-10-26T13:52:47;4.53;;;2.40;;
17345;SDS011;8790;53.590;10.002;2022-10-26T13:55:22;3.40;;;2.50;;
17345;SDS011;8790;53.590;10.002;2022-10-26T13:58:02;7.30;;;3.10;;
17345;SDS011;8790;53.590;10.002;2022-10-26T14:03:32;4.77;;;2.53;;
17345;SDS011;8790;53.590;10.002;2022-10-26T14:06:07;4.17;;;2.60;;
17345;SDS011;8790;53.590;10.002;2022-10-26T14:08:46;6.70;;;2.80;;
17345;SDS011;8790;53.590;10.002;2022-10-26T14:11:22;2.50;;;2.30;;
17345;SDS011;8790;53.590;10.002;2022-10-26T14:14:00;4.37;;;2.43;;
17345;SDS011;8790;53.590;10.002;2022-10-26T14:16:35;6.37;;;2.67;;
17345;SDS011;8790;53.590;10.002;2022-10-26T14:19:18;6.03;;;2.70;;
17345;SDS011;8790;53.590;10.002;2022-10-26T14:21:54;7.20;;;2.50;;
17345;SDS011;8790;53.590;10.002;2022-10-26T14:24:28;5.20;;;2.97;;
17345;SDS011;8790;53.590;10.002;2022-10-26T14:27:01;6.40;;;2.30;;
17345;SDS011;8790;53.590;10.002;2022-10-26T14:29:36;4.43;;;2.57;;
17345;SDS011;8790;53.590;10.002;2022-10-26T14:32:18;6.77;;;2.47;;
17345;SDS011;8790;53.590;10.002;2022-10-26T14:34:52;4.03;;;2.33;;
17345;SDS011;8790;53.590;10.002;2022-10-26T14:37:25;5.23;;;2.03;;
17345;SDS011;8790;53.590;10.002;2022-10-26T14:40:03;4.40;;;2.20;;
17345;SDS011;8790;53.590;10.002;2022-10-26T14:42:37;4.50;;;2.13;;
17345;SDS011;8790;53.590;10.002;2022-10-26T14:45:19;7.37;;;2.60;;
17345;SDS011;8790;53.590;10.002;2022-10-26T14:47:53;5.33;;;2.40;;
17345;SDS011;8790;53.590;10.002;2022-10-26T14:50:27;6.53;;;2.60;;
17345;SDS011;8790;53.590;10.002;2022-10-26T14:53:02;4.30;;;2.43;;
17345;SDS011;8790;53.590;10.002;2022-10-26T14:55:44;3.27;;;2.30;;
17345;SDS011;8790;53.590;10.002;2022-10-26T14:58:19;3.53;;;2.67;;
17345;SDS011;8790;53.590;10.002;2022-10-26T15:03:44;4.27;;;2.60;;
17345;SDS011;8790;53.590;10.002;2022-10-26T15:09:36;4.47;;;2.20;;
17345;SDS011;8790;53.590;10.002;2022-10-26T15:12:19;3.83;;;2.30;;
17345;SDS011;8790;53.590;10.002;2022-10-26T15:14:59;4.63;;;2.43;;
17345;SDS011;8790;53.590;10.002;2022-10-26T15:17:41;4.53;;;2.50;;
17345;SDS011;8790;53.590;10.002;2022-10-26T15:20:18;4.43;;;2.40;;
17345;SDS011;8790;53.590;10.002;2022-10-26T15:22:54;4.83;;;2.70;;
17345;SDS011;8790;53.590;10.002;2022-10-26T15:25:27;5.83;;;2.50;;
17345;SDS011;8790;53.590;10.002;2022-10-26T15:28:08;6.07;;;2.30;;
17345;SDS011;8790;53.590;10.002;2022-10-26T15:30:40;4.70;;;2.43;;
17345;SDS011;8790;53.590;10.002;2022-10-26T15:33:29;4.23;;;2.57;;
17345;SDS011;8790;53.590;10.002;2022-10-26T15:36:09;4.30;;;2.03;;
17345;SDS011;8790;53.590;10.002;2022-10-26T15:38:44;5.27;;;2.40;;
17345;SDS011;8790;53.590;10.002;2022-10-26T15:41:18;4.70;;;2.50;;
17345;SDS011;8790;53.590;10.002;2022-10-26T15:43:53;3.67;;;2.43;;
17345;SDS011;8790;53.590;10.002;2022-10-26T15:46:28;6.17;;;2.40;;
17345;SDS011;8790;53.590;10.002;2022-10-26T15:49:02;3.70;;;2.80;;
17345;SDS011;8790;53.590;10.002;2022-10-26T15:51:35;4.80;;;2.77;;
17345;SDS011;8790;53.590;10.002;2022-10-26T15:54:09;7.20;;;3.00;;
17345;SDS011;8790;53.590;10.002;2022-10-26T15:56:41;6.77;;;2.60;;
17345;SDS011;8790;53.590;10.002;2022-10-26T15:59:14;3.40;;;2.40;;
17345;SDS011;8790;53.590;10.002;2022-10-26T16:01:47;5.00;;;2.70;;
17345;SDS011;8790;53.590;10.002;2022-10-26T16:04:21;4.73;;;2.77;;